sensor_id;sensor_type;location;lat;lon;timestamp;temperature;humidity
13798;DHT22;6970;51.340;3.240;2023-06-14T00:00:41;20.00;99.90
13798;DHT22;6970;51.340;3.240;2023-06-14T00:03:10;20.10;99.90
13798;DHT22;6970;51.340;3.240;2023-06-14T00:05:39;20.20;99.90
13798;DHT22;6970;51.340;3.240;2023-06-14T00:08:11;20.20;99.90
13798;DHT22;6970;51.340;3.240;2023-06-14T00:10:40;20.20;99.90
13798;DHT22;6970;51.340;3.240;2023-06-14T00:13:10;20.20;99.90
13798;DHT22;6970;51.340;3.240;2023-06-14T00:15:38;20.20;99.90
13798;DHT22;6970;51.340;3.240;2023-06-14T00:18:05;20.20;99.90
13798;DHT22;6970;51.340;3.240;2023-06-14T00:20:33;20.20;99.90
13798;DHT22;6970;51.340;3.240;2023-06-14T00:23:01;20.20;99.90
13798;DHT22;6970;51.340;3.240;2023-06-14T00:25:28;20.20;99.60
13798;DHT22;6970;51.340;3.240;2023-06-14T00:27:57;20.20;99.50
13798;DHT22;6970;51.340;3.240;2023-06-14T00:30:24;20.20;99.30
13798;DHT22;6970;51.340;3.240;2023-06-14T00:32:52;20.20;99.00
13798;DHT22;6970;51.340;3.240;2023-06-14T00:35:28;20.20;98.70
13798;DHT22;6970;51.340;3.240;2023-06-14T00:37:58;20.20;98.60
13798;DHT22;6970;51.340;3.240;2023-06-14T00:40:29;20.20;98.50
13798;DHT22;6970;51.340;3.240;2023-06-14T00:42:56;20.20;98.60
13798;DHT22;6970;51.340;3.240;2023-06-14T00:45:26;20.20;98.50
13798;DHT22;6970;51.340;3.240;2023-06-14T00:47:53;20.20;98.50
13798;DHT22;6970;51.340;3.240;2023-06-14T00:50:22;20.20;98.40
13798;DHT22;6970;51.340;3.240;2023-06-14T00:52:53;20.10;98.20
13798;DHT22;6970;51.340;3.240;2023-06-14T00:55:20;20.10;98.20
13798;DHT22;6970;51.340;3.240;2023-06-14T00:57:50;20.10;98.10
13798;DHT22;6970;51.340;3.240;2023-06-14T01:00:19;20.10;98.10
13798;DHT22;6970;51.340;3.240;2023-06-14T01:02:49;20.10;98.00
13798;DHT22;6970;51.340;3.240;2023-06-14T01:05:20;20.10;97.90
13798;DHT22;6970;51.340;3.240;2023-06-14T01:10:53;20.00;97.90
13798;DHT22;6970;51.340;3.240;2023-06-14T01:13:33;20.00;97.90
13798;DHT22;6970;51.340;3.240;2023-06-14T01:16:05;20.00;97.90
13798;DHT22;6970;51.340;3.240;2023-06-14T01:18:36;19.90;97.70
13798;DHT22;6970;51.340;3.240;2023-06-14T01:21:06;19.90;97.60
13798;DHT22;6970;51.340;3.240;2023-06-14T01:23:56;19.90;97.60
13798;DHT22;6970;51.340;3.240;2023-06-14T01:26:23;19.90;97.70
13798;DHT22;6970;51.340;3.240;2023-06-14T01:28:51;19.90;97.60
13798;DHT22;6970;51.340;3.240;2023-06-14T01:31:23;19.90;97.60
13798;DHT22;6970;51.340;3.240;2023-06-14T01:33:51;19.80;97.60
13798;DHT22;6970;51.340;3.240;2023-06-14T01:36:22;19.80;97.70
13798;DHT22;6970;51.340;3.240;2023-06-14T01:38:53;19.80;97.70
13798;DHT22;6970;51.340;3.240;2023-06-14T01:41:21;19.70;97.70
13798;DHT22;6970;51.340;3.240;2023-06-14T01:43:50;19.70;97.70
13798;DHT22;6970;51.340;3.240;2023-06-14T01:46:18;19.70;97.80
13798;DHT22;6970;51.340;3.240;2023-06-14T01:48:46;19.70;97.80
13798;DHT22;6970;51.340;3.240;2023-06-14T01:51:13;19.60;97.70
13798;DHT22;6970;51.340;3.240;2023-06-14T01:53:40;19.60;97.80
13798;DHT22;6970;51.340;3.240;2023-06-14T01:56:07;19.60;97.60
13798;DHT22;6970;51.340;3.240;2023-06-14T01:58:35;19.60;97.60
13798;DHT22;6970;51.340;3.240;2023-06-14T02:01:05;19.50;97.50
13798;DHT22;6970;51.340;3.240;2023-06-14T02:03:34;19.50;97.50
13798;DHT22;6970;51.340;3.240;2023-06-14T02:06:11;19.50;97.40
13798;DHT22;6970;51.340;3.240;2023-06-14T02:08:39;19.50;97.30
13798;DHT22;6970;51.340;3.240;2023-06-14T02:11:10;19.50;97.30
13798;DHT22;6970;51.340;3.240;2023-06-14T02:13:39;19.50;97.20
13798;DHT22;6970;51.340;3.240;2023-06-14T02:16:09;19.40;97.00
13798;DHT22;6970;51.340;3.240;2023-06-14T02:18:37;19.40;97.00
13798;DHT22;6970;51.340;3.240;2023-06-14T02:21:07;19.40;97.00
13798;DHT22;6970;51.340;3.240;2023-06-14T02:23:39;19.40;97.00
13798;DHT22;6970;51.340;3.240;2023-06-14T02:26:13;19.40;96.80
13798;DHT22;6970;51.340;3.240;2023-06-14T02:28:42;19.40;96.70
13798;DHT22;6970;51.340;3.240;2023-06-14T02:31:12;19.40;96.70
13798;DHT22;6970;51.340;3.240;2023-06-14T02:33:40;19.40;96.60
13798;DHT22;6970;51.340;3.240;2023-06-14T02:36:08;19.40;96.60
13798;DHT22;6970;51.340;3.240;2023-06-14T02:38:36;19.40;96.60
13798;DHT22;6970;51.340;3.240;2023-06-14T02:41:04;19.40;96.50
13798;DHT22;6970;51.340;3.240;2023-06-14T02:43:33;19.30;96.50
13798;DHT22;6970;51.340;3.240;2023-06-14T02:46:00;19.30;96.50
13798;DHT22;6970;51.340;3.240;2023-06-14T02:48:29;19.30;96.50
13798;DHT22;6970;51.340;3.240;2023-06-14T02:50:57;19.30;96.50
13798;DHT22;6970;51.340;3.240;2023-06-14T02:53:27;19.20;96.50
13798;DHT22;6970;51.340;3.240;2023-06-14T02:55:55;19.20;96.50
13798;DHT22;6970;51.340;3.240;2023-06-14T02:58:24;19.20;96.50
13798;DHT22;6970;51.340;3.240;2023-06-14T03:00:52;19.20;96.40
13798;DHT22;6970;51.340;3.240;2023-06-14T03:03:21;19.10;96.40
13798;DHT22;6970;51.340;3.240;2023-06-14T03:05:49;19.10;96.70
13798;DHT22;6970;51.340;3.240;2023-06-14T03:08:24;19.10;96.30
13798;DHT22;6970;51.340;3.240;2023-06-14T03:10:54;19.10;96.30
13798;DHT22;6970;51.340;3.240;2023-06-14T03:13:23;19.00;96.30
13798;DHT22;6970;51.340;3.240;2023-06-14T03:15:54;19.00;96.30
13798;DHT22;6970;51.340;3.240;2023-06-14T03:18:24;19.00;96.20
13798;DHT22;6970;51.340;3.240;2023-06-14T03:20:53;19.00;96.00
13798;DHT22;6970;51.340;3.240;2023-06-14T03:23:24;19.00;96.00
13798;DHT22;6970;51.340;3.240;2023-06-14T03:25:52;19.00;95.70
13798;DHT22;6970;51.340;3.240;2023-06-14T03:28:25;19.00;95.70
13798;DHT22;6970;51.340;3.240;2023-06-14T03:30:54;18.90;95.70
13798;DHT22;6970;51.340;3.240;2023-06-14T03:33:22;18.90;96.10
13798;DHT22;6970;51.340;3.240;2023-06-14T03:35:50;18.90;95.70
13798;DHT22;6970;51.340;3.240;2023-06-14T03:38:19;18.90;95.70
13798;DHT22;6970;51.340;3.240;2023-06-14T03:40:49;18.90;95.70
13798;DHT22;6970;51.340;3.240;2023-06-14T03:43:17;18.90;95.60
13798;DHT22;6970;51.340;3.240;2023-06-14T03:45:44;18.90;95.30
13798;DHT22;6970;51.340;3.240;2023-06-14T03:48:14;18.90;95.30
13798;DHT22;6970;51.340;3.240;2023-06-14T03:50:45;18.90;95.20
13798;DHT22;6970;51.340;3.240;2023-06-14T03:53:12;18.90;95.20
13798;DHT22;6970;51.340;3.240;2023-06-14T03:55:42;18.90;95.10
13798;DHT22;6970;51.340;3.240;2023-06-14T03:58:15;18.90;95.10
13798;DHT22;6970;51.340;3.240;2023-06-14T04:00:46;18.80;95.00
13798;DHT22;6970;51.340;3.240;2023-06-14T04:03:13;18.80;95.00
13798;DHT22;6970;51.340;3.240;2023-06-14T04:05:42;18.80;94.90
13798;DHT22;6970;51.340;3.240;2023-06-14T04:08:12;18.80;94.90
13798;DHT22;6970;51.340;3.240;2023-06-14T04:10:44;18.80;94.90
13798;DHT22;6970;51.340;3.240;2023-06-14T04:13:19;18.80;94.90
13798;DHT22;6970;51.340;3.240;2023-06-14T04:15:46;18.80;94.90
13798;DHT22;6970;51.340;3.240;2023-06-14T04:18:14;18.80;94.70
13798;DHT22;6970;51.340;3.240;2023-06-14T04:20:47;18.80;94.60
13798;DHT22;6970;51.340;3.240;2023-06-14T04:23:17;18.90;94.70
13798;DHT22;6970;51.340;3.240;2023-06-14T04:25:48;18.90;94.70
13798;DHT22;6970;51.340;3.240;2023-06-14T04:28:30;18.90;94.70
13798;DHT22;6970;51.340;3.240;2023-06-14T04:30:58;18.90;94.70
13798;DHT22;6970;51.340;3.240;2023-06-14T04:33:37;18.90;94.70
13798;DHT22;6970;51.340;3.240;2023-06-14T04:36:13;18.90;94.70
13798;DHT22;6970;51.340;3.240;2023-06-14T04:38:42;18.90;94.70
13798;DHT22;6970;51.340;3.240;2023-06-14T04:41:12;18.90;94.80
13798;DHT22;6970;51.340;3.240;2023-06-14T04:43:40;19.00;94.90
13798;DHT22;6970;51.340;3.240;2023-06-14T04:46:12;18.90;94.80
13798;DHT22;6970;51.340;3.240;2023-06-14T04:48:43;19.00;94.80
13798;DHT22;6970;51.340;3.240;2023-06-14T04:51:12;19.00;94.70
13798;DHT22;6970;51.340;3.240;2023-06-14T04:53:43;19.00;94.70
13798;DHT22;6970;51.340;3.240;2023-06-14T04:56:13;19.00;95.00
13798;DHT22;6970;51.340;3.240;2023-06-14T04:58:41;19.00;94.60
13798;DHT22;6970;51.340;3.240;2023-06-14T05:01:08;19.00;94.70
13798;DHT22;6970;51.340;3.240;2023-06-14T05:03:37;19.10;94.70
13798;DHT22;6970;51.340;3.240;2023-06-14T05:06:04;19.10;94.70
13798;DHT22;6970;51.340;3.240;2023-06-14T05:08:34;19.10;94.70
13798;DHT22;6970;51.340;3.240;2023-06-14T05:11:04;19.20;94.70
13798;DHT22;6970;51.340;3.240;2023-06-14T05:13:37;19.10;94.70
13798;DHT22;6970;51.340;3.240;2023-06-14T05:16:12;19.20;94.70
13798;DHT22;6970;51.340;3.240;2023-06-14T05:18:46;19.20;94.80
13798;DHT22;6970;51.340;3.240;2023-06-14T05:21:14;19.30;94.70
13798;DHT22;6970;51.340;3.240;2023-06-14T05:23:50;19.30;94.70
13798;DHT22;6970;51.340;3.240;2023-06-14T05:26:19;19.30;94.80
13798;DHT22;6970;51.340;3.240;2023-06-14T05:28:48;19.40;94.80
13798;DHT22;6970;51.340;3.240;2023-06-14T05:31:18;19.40;94.90
13798;DHT22;6970;51.340;3.240;2023-06-14T05:33:48;19.50;94.80
13798;DHT22;6970;51.340;3.240;2023-06-14T05:36:17;19.50;94.90
13798;DHT22;6970;51.340;3.240;2023-06-14T05:38:45;19.50;94.90
13798;DHT22;6970;51.340;3.240;2023-06-14T05:41:13;19.60;94.90
13798;DHT22;6970;51.340;3.240;2023-06-14T05:43:40;19.60;94.90
13798;DHT22;6970;51.340;3.240;2023-06-14T05:46:08;19.60;95.00
13798;DHT22;6970;51.340;3.240;2023-06-14T05:48:37;19.70;95.00
13798;DHT22;6970;51.340;3.240;2023-06-14T05:51:04;19.70;94.90
13798;DHT22;6970;51.340;3.240;2023-06-14T05:53:50;19.80;94.90
13798;DHT22;6970;51.340;3.240;2023-06-14T05:56:21;19.90;94.90
13798;DHT22;6970;51.340;3.240;2023-06-14T05:58:50;19.90;94.80
13798;DHT22;6970;51.340;3.240;2023-06-14T06:01:20;20.00;94.80
13798;DHT22;6970;51.340;3.240;2023-06-14T06:03:51;20.00;94.80
13798;DHT22;6970;51.340;3.240;2023-06-14T06:06:19;20.10;94.90
13798;DHT22;6970;51.340;3.240;2023-06-14T06:08:47;20.10;94.80
13798;DHT22;6970;51.340;3.240;2023-06-14T06:11:14;20.20;94.80
13798;DHT22;6970;51.340;3.240;2023-06-14T06:13:43;20.20;94.90
13798;DHT22;6970;51.340;3.240;2023-06-14T06:16:14;20.30;94.90
13798;DHT22;6970;51.340;3.240;2023-06-14T06:18:42;20.30;94.90
13798;DHT22;6970;51.340;3.240;2023-06-14T06:21:11;20.40;94.90
13798;DHT22;6970;51.340;3.240;2023-06-14T06:23:39;20.40;94.70
13798;DHT22;6970;51.340;3.240;2023-06-14T06:26:06;20.40;94.50
13798;DHT22;6970;51.340;3.240;2023-06-14T06:28:37;20.50;94.50
13798;DHT22;6970;51.340;3.240;2023-06-14T06:31:07;20.50;94.60
13798;DHT22;6970;51.340;3.240;2023-06-14T06:33:35;20.50;94.60
13798;DHT22;6970;51.340;3.240;2023-06-14T06:36:03;20.60;94.60
13798;DHT22;6970;51.340;3.240;2023-06-14T06:38:34;20.60;94.40
13798;DHT22;6970;51.340;3.240;2023-06-14T06:41:04;20.70;94.50
13798;DHT22;6970;51.340;3.240;2023-06-14T06:43:35;20.80;94.60
13798;DHT22;6970;51.340;3.240;2023-06-14T06:46:02;20.90;94.60
13798;DHT22;6970;51.340;3.240;2023-06-14T06:48:31;21.00;94.70
13798;DHT22;6970;51.340;3.240;2023-06-14T06:50:59;21.10;94.60
13798;DHT22;6970;51.340;3.240;2023-06-14T06:53:26;21.10;94.50
13798;DHT22;6970;51.340;3.240;2023-06-14T06:56:10;21.20;94.40
13798;DHT22;6970;51.340;3.240;2023-06-14T06:58:39;21.30;94.20
13798;DHT22;6970;51.340;3.240;2023-06-14T07:01:06;21.40;94.20
13798;DHT22;6970;51.340;3.240;2023-06-14T07:03:37;21.50;94.20
13798;DHT22;6970;51.340;3.240;2023-06-14T07:06:10;21.60;93.80
13798;DHT22;6970;51.340;3.240;2023-06-14T07:08:43;21.60;93.70
13798;DHT22;6970;51.340;3.240;2023-06-14T07:11:14;21.80;94.00
13798;DHT22;6970;51.340;3.240;2023-06-14T07:13:42;21.90;93.60
13798;DHT22;6970;51.340;3.240;2023-06-14T07:16:09;22.00;93.50
13798;DHT22;6970;51.340;3.240;2023-06-14T07:18:38;22.20;93.50
13798;DHT22;6970;51.340;3.240;2023-06-14T07:21:07;22.30;93.20
13798;DHT22;6970;51.340;3.240;2023-06-14T07:23:36;22.50;93.30
13798;DHT22;6970;51.340;3.240;2023-06-14T07:26:03;22.70;93.20
13798;DHT22;6970;51.340;3.240;2023-06-14T07:28:33;23.00;93.00
13798;DHT22;6970;51.340;3.240;2023-06-14T07:31:01;23.30;92.90
13798;DHT22;6970;51.340;3.240;2023-06-14T07:33:29;23.60;92.40
13798;DHT22;6970;51.340;3.240;2023-06-14T07:36:00;23.80;92.20
13798;DHT22;6970;51.340;3.240;2023-06-14T07:38:27;24.00;92.30
13798;DHT22;6970;51.340;3.240;2023-06-14T07:40:56;24.30;92.90
13798;DHT22;6970;51.340;3.240;2023-06-14T07:43:25;24.60;93.50
13798;DHT22;6970;51.340;3.240;2023-06-14T07:45:58;24.80;94.30
13798;DHT22;6970;51.340;3.240;2023-06-14T07:48:35;24.90;94.70
13798;DHT22;6970;51.340;3.240;2023-06-14T07:51:06;25.00;94.70
13798;DHT22;6970;51.340;3.240;2023-06-14T07:53:33;25.10;94.60
13798;DHT22;6970;51.340;3.240;2023-06-14T07:56:00;25.20;94.60
13798;DHT22;6970;51.340;3.240;2023-06-14T07:58:27;25.20;94.70
13798;DHT22;6970;51.340;3.240;2023-06-14T08:00:57;25.40;94.80
13798;DHT22;6970;51.340;3.240;2023-06-14T08:03:28;25.50;94.90
13798;DHT22;6970;51.340;3.240;2023-06-14T08:05:55;25.50;94.70
13798;DHT22;6970;51.340;3.240;2023-06-14T08:08:23;25.50;94.10
13798;DHT22;6970;51.340;3.240;2023-06-14T08:10:53;25.60;93.40
13798;DHT22;6970;51.340;3.240;2023-06-14T08:13:24;25.60;92.70
13798;DHT22;6970;51.340;3.240;2023-06-14T08:15:51;25.70;92.10
13798;DHT22;6970;51.340;3.240;2023-06-14T08:18:21;25.70;91.80
13798;DHT22;6970;51.340;3.240;2023-06-14T08:20:51;25.80;91.80
13798;DHT22;6970;51.340;3.240;2023-06-14T08:23:20;25.80;91.90
13798;DHT22;6970;51.340;3.240;2023-06-14T08:25:49;25.80;92.30
13798;DHT22;6970;51.340;3.240;2023-06-14T08:28:18;25.90;92.60
13798;DHT22;6970;51.340;3.240;2023-06-14T08:30:45;26.10;92.70
13798;DHT22;6970;51.340;3.240;2023-06-14T08:33:12;26.20;92.10
13798;DHT22;6970;51.340;3.240;2023-06-14T08:35:46;26.40;92.70
13798;DHT22;6970;51.340;3.240;2023-06-14T08:38:14;26.60;92.90
13798;DHT22;6970;51.340;3.240;2023-06-14T08:40:47;26.90;93.10
13798;DHT22;6970;51.340;3.240;2023-06-14T08:43:14;27.00;93.20
13798;DHT22;6970;51.340;3.240;2023-06-14T08:45:43;27.20;93.60
13798;DHT22;6970;51.340;3.240;2023-06-14T08:48:13;27.30;93.70
13798;DHT22;6970;51.340;3.240;2023-06-14T08:50:59;27.40;93.60
13798;DHT22;6970;51.340;3.240;2023-06-14T08:53:31;27.50;93.60
13798;DHT22;6970;51.340;3.240;2023-06-14T08:56:09;27.60;93.50
13798;DHT22;6970;51.340;3.240;2023-06-14T08:58:44;27.70;93.60
13798;DHT22;6970;51.340;3.240;2023-06-14T09:01:16;27.80;93.60
13798;DHT22;6970;51.340;3.240;2023-06-14T09:03:48;27.80;92.90
13798;DHT22;6970;51.340;3.240;2023-06-14T09:06:16;27.90;92.60
13798;DHT22;6970;51.340;3.240;2023-06-14T09:08:46;28.00;92.30
13798;DHT22;6970;51.340;3.240;2023-06-14T09:11:18;28.10;92.40
13798;DHT22;6970;51.340;3.240;2023-06-14T09:13:46;28.30;91.90
13798;DHT22;6970;51.340;3.240;2023-06-14T09:16:16;28.50;91.70
13798;DHT22;6970;51.340;3.240;2023-06-14T09:18:48;28.60;91.80
13798;DHT22;6970;51.340;3.240;2023-06-14T09:21:16;28.70;91.70
13798;DHT22;6970;51.340;3.240;2023-06-14T09:23:48;28.90;91.00
13798;DHT22;6970;51.340;3.240;2023-06-14T09:26:19;29.10;90.30
13798;DHT22;6970;51.340;3.240;2023-06-14T09:28:50;29.30;91.00
13798;DHT22;6970;51.340;3.240;2023-06-14T09:31:21;29.30;91.80
13798;DHT22;6970;51.340;3.240;2023-06-14T09:33:56;29.40;91.30
13798;DHT22;6970;51.340;3.240;2023-06-14T09:36:26;29.50;91.50
13798;DHT22;6970;51.340;3.240;2023-06-14T09:38:57;29.50;91.90
13798;DHT22;6970;51.340;3.240;2023-06-14T09:41:39;29.50;92.20
13798;DHT22;6970;51.340;3.240;2023-06-14T09:44:09;29.40;92.30
13798;DHT22;6970;51.340;3.240;2023-06-14T09:46:43;29.30;92.60
13798;DHT22;6970;51.340;3.240;2023-06-14T09:49:13;29.10;92.40
13798;DHT22;6970;51.340;3.240;2023-06-14T09:51:43;29.00;92.50
13798;DHT22;6970;51.340;3.240;2023-06-14T09:54:23;29.00;92.60
13798;DHT22;6970;51.340;3.240;2023-06-14T09:56:54;29.00;92.20
13798;DHT22;6970;51.340;3.240;2023-06-14T09:59:26;29.00;92.30
13798;DHT22;6970;51.340;3.240;2023-06-14T10:02:25;28.90;92.20
13798;DHT22;6970;51.340;3.240;2023-06-14T10:04:58;28.90;92.10
13798;DHT22;6970;51.340;3.240;2023-06-14T10:07:35;29.00;91.80
13798;DHT22;6970;51.340;3.240;2023-06-14T10:10:06;29.00;91.80
13798;DHT22;6970;51.340;3.240;2023-06-14T10:12:37;29.10;91.50
13798;DHT22;6970;51.340;3.240;2023-06-14T10:15:09;29.20;91.50
13798;DHT22;6970;51.340;3.240;2023-06-14T10:17:49;29.30;91.70
13798;DHT22;6970;51.340;3.240;2023-06-14T10:23:10;29.50;91.90
13798;DHT22;6970;51.340;3.240;2023-06-14T10:25:39;29.60;92.00
13798;DHT22;6970;51.340;3.240;2023-06-14T10:28:18;29.80;91.70
13798;DHT22;6970;51.340;3.240;2023-06-14T10:31:06;29.90;91.70
13798;DHT22;6970;51.340;3.240;2023-06-14T10:33:55;30.00;91.50
13798;DHT22;6970;51.340;3.240;2023-06-14T10:36:25;30.00;91.30
13798;DHT22;6970;51.340;3.240;2023-06-14T10:39:24;30.00;91.10
13798;DHT22;6970;51.340;3.240;2023-06-14T10:41:53;29.90;91.00
13798;DHT22;6970;51.340;3.240;2023-06-14T10:46:53;29.30;91.60
13798;DHT22;6970;51.340;3.240;2023-06-14T10:49:42;29.30;91.60
13798;DHT22;6970;51.340;3.240;2023-06-14T10:52:15;29.30;91.30
13798;DHT22;6970;51.340;3.240;2023-06-14T10:55:06;29.20;91.50
13798;DHT22;6970;51.340;3.240;2023-06-14T10:57:51;29.10;91.70
13798;DHT22;6970;51.340;3.240;2023-06-14T11:00:24;29.00;91.70
13798;DHT22;6970;51.340;3.240;2023-06-14T11:05:53;29.00;92.00
13798;DHT22;6970;51.340;3.240;2023-06-14T11:11:32;28.50;92.40
13798;DHT22;6970;51.340;3.240;2023-06-14T11:14:02;28.40;92.90
13798;DHT22;6970;51.340;3.240;2023-06-14T11:16:31;28.30;92.70
13798;DHT22;6970;51.340;3.240;2023-06-14T11:19:05;28.30;92.80
13798;DHT22;6970;51.340;3.240;2023-06-14T11:21:40;28.20;92.70
13798;DHT22;6970;51.340;3.240;2023-06-14T11:24:14;28.10;92.80
13798;DHT22;6970;51.340;3.240;2023-06-14T11:26:48;28.10;92.90
13798;DHT22;6970;51.340;3.240;2023-06-14T11:29:20;28.00;93.00
13798;DHT22;6970;51.340;3.240;2023-06-14T11:31:48;27.90;93.10
13798;DHT22;6970;51.340;3.240;2023-06-14T11:34:15;27.90;93.50
13798;DHT22;6970;51.340;3.240;2023-06-14T11:36:45;28.00;93.20
13798;DHT22;6970;51.340;3.240;2023-06-14T11:39:17;28.00;93.00
13798;DHT22;6970;51.340;3.240;2023-06-14T11:41:45;28.00;93.00
13798;DHT22;6970;51.340;3.240;2023-06-14T11:44:18;28.00;92.90
13798;DHT22;6970;51.340;3.240;2023-06-14T11:46:51;28.00;92.90
13798;DHT22;6970;51.340;3.240;2023-06-14T11:49:21;28.00;92.90
13798;DHT22;6970;51.340;3.240;2023-06-14T11:51:53;28.00;92.90
13798;DHT22;6970;51.340;3.240;2023-06-14T11:54:20;27.90;93.00
13798;DHT22;6970;51.340;3.240;2023-06-14T11:56:50;27.80;93.10
13798;DHT22;6970;51.340;3.240;2023-06-14T11:59:20;27.80;93.10
13798;DHT22;6970;51.340;3.240;2023-06-14T12:01:52;27.70;93.20
13798;DHT22;6970;51.340;3.240;2023-06-14T12:04:26;27.60;93.40
13798;DHT22;6970;51.340;3.240;2023-06-14T12:06:56;27.60;93.40
13798;DHT22;6970;51.340;3.240;2023-06-14T12:09:27;27.50;93.60
13798;DHT22;6970;51.340;3.240;2023-06-14T12:12:02;27.50;93.70
13798;DHT22;6970;51.340;3.240;2023-06-14T12:14:31;27.50;93.60
13798;DHT22;6970;51.340;3.240;2023-06-14T12:17:05;27.50;93.70
13798;DHT22;6970;51.340;3.240;2023-06-14T12:19:43;27.40;93.70
13798;DHT22;6970;51.340;3.240;2023-06-14T12:22:13;27.30;93.90
13798;DHT22;6970;51.340;3.240;2023-06-14T12:24:47;27.30;94.10
13798;DHT22;6970;51.340;3.240;2023-06-14T12:27:16;27.20;94.00
13798;DHT22;6970;51.340;3.240;2023-06-14T12:29:59;27.20;94.20
13798;DHT22;6970;51.340;3.240;2023-06-14T12:32:29;27.10;94.20
13798;DHT22;6970;51.340;3.240;2023-06-14T12:35:00;27.10;94.40
13798;DHT22;6970;51.340;3.240;2023-06-14T12:37:28;27.00;94.40
13798;DHT22;6970;51.340;3.240;2023-06-14T12:39:58;27.00;94.50
13798;DHT22;6970;51.340;3.240;2023-06-14T12:42:26;27.00;94.40
13798;DHT22;6970;51.340;3.240;2023-06-14T12:44:55;27.00;94.40
13798;DHT22;6970;51.340;3.240;2023-06-14T12:47:26;26.90;94.40
13798;DHT22;6970;51.340;3.240;2023-06-14T12:49:55;26.90;94.60
13798;DHT22;6970;51.340;3.240;2023-06-14T12:52:24;26.90;94.50
13798;DHT22;6970;51.340;3.240;2023-06-14T12:54:52;26.90;94.60
13798;DHT22;6970;51.340;3.240;2023-06-14T12:57:21;26.80;94.70
13798;DHT22;6970;51.340;3.240;2023-06-14T12:59:51;26.90;94.70
13798;DHT22;6970;51.340;3.240;2023-06-14T13:02:20;26.90;94.60
13798;DHT22;6970;51.340;3.240;2023-06-14T13:04:57;26.90;94.80
13798;DHT22;6970;51.340;3.240;2023-06-14T13:07:28;26.90;94.80
13798;DHT22;6970;51.340;3.240;2023-06-14T13:09:58;26.90;94.90
13798;DHT22;6970;51.340;3.240;2023-06-14T13:12:27;26.90;94.90
13798;DHT22;6970;51.340;3.240;2023-06-14T13:14:57;27.00;95.00
13798;DHT22;6970;51.340;3.240;2023-06-14T13:17:26;27.10;95.00
13798;DHT22;6970;51.340;3.240;2023-06-14T13:19:56;27.30;94.90
13798;DHT22;6970;51.340;3.240;2023-06-14T13:22:25;27.50;94.70
13798;DHT22;6970;51.340;3.240;2023-06-14T13:24:53;27.50;94.40
13798;DHT22;6970;51.340;3.240;2023-06-14T13:27:20;27.60;94.30
13798;DHT22;6970;51.340;3.240;2023-06-14T13:29:49;27.60;94.30
13798;DHT22;6970;51.340;3.240;2023-06-14T13:32:22;27.50;94.40
13798;DHT22;6970;51.340;3.240;2023-06-14T13:34:56;27.40;94.60
13798;DHT22;6970;51.340;3.240;2023-06-14T13:37:26;27.40;94.70
13798;DHT22;6970;51.340;3.240;2023-06-14T13:39:54;27.20;94.80
13798;DHT22;6970;51.340;3.240;2023-06-14T13:42:22;27.00;95.00
13798;DHT22;6970;51.340;3.240;2023-06-14T13:44:52;26.90;95.00
13798;DHT22;6970;51.340;3.240;2023-06-14T13:47:32;26.70;95.30
13798;DHT22;6970;51.340;3.240;2023-06-14T13:50:04;26.60;95.40
13798;DHT22;6970;51.340;3.240;2023-06-14T13:52:33;26.60;95.40
13798;DHT22;6970;51.340;3.240;2023-06-14T13:55:03;26.50;95.50
13798;DHT22;6970;51.340;3.240;2023-06-14T13:57:38;26.40;95.80
13798;DHT22;6970;51.340;3.240;2023-06-14T14:00:05;26.20;96.10
13798;DHT22;6970;51.340;3.240;2023-06-14T14:02:36;26.10;96.20
13798;DHT22;6970;51.340;3.240;2023-06-14T14:05:03;26.10;96.30
13798;DHT22;6970;51.340;3.240;2023-06-14T14:07:33;26.10;96.30
13798;DHT22;6970;51.340;3.240;2023-06-14T14:10:04;26.20;96.30
13798;DHT22;6970;51.340;3.240;2023-06-14T14:12:35;26.40;96.10
13798;DHT22;6970;51.340;3.240;2023-06-14T14:15:03;26.40;95.90
13798;DHT22;6970;51.340;3.240;2023-06-14T14:17:31;26.40;96.00
13798;DHT22;6970;51.340;3.240;2023-06-14T14:20:00;26.40;95.90
13798;DHT22;6970;51.340;3.240;2023-06-14T14:22:28;26.40;96.00
13798;DHT22;6970;51.340;3.240;2023-06-14T14:24:55;26.40;96.00
13798;DHT22;6970;51.340;3.240;2023-06-14T14:27:22;26.40;96.00
13798;DHT22;6970;51.340;3.240;2023-06-14T14:29:49;26.40;96.10
13798;DHT22;6970;51.340;3.240;2023-06-14T14:32:16;26.50;95.90
13798;DHT22;6970;51.340;3.240;2023-06-14T14:34:43;26.60;95.70
13798;DHT22;6970;51.340;3.240;2023-06-14T14:37:13;26.60;95.50
13798;DHT22;6970;51.340;3.240;2023-06-14T14:39:41;26.70;95.50
13798;DHT22;6970;51.340;3.240;2023-06-14T14:42:09;26.70;95.50
13798;DHT22;6970;51.340;3.240;2023-06-14T14:44:41;26.70;95.50
13798;DHT22;6970;51.340;3.240;2023-06-14T14:47:11;26.70;95.40
13798;DHT22;6970;51.340;3.240;2023-06-14T14:49:40;26.80;95.30
13798;DHT22;6970;51.340;3.240;2023-06-14T14:52:11;26.80;95.00
13798;DHT22;6970;51.340;3.240;2023-06-14T14:54:50;26.90;94.70
13798;DHT22;6970;51.340;3.240;2023-06-14T14:57:18;26.90;94.60
13798;DHT22;6970;51.340;3.240;2023-06-14T14:59:46;26.80;94.80
13798;DHT22;6970;51.340;3.240;2023-06-14T15:02:13;26.70;94.70
13798;DHT22;6970;51.340;3.240;2023-06-14T15:04:44;26.60;94.70
13798;DHT22;6970;51.340;3.240;2023-06-14T15:07:12;26.60;95.00
13798;DHT22;6970;51.340;3.240;2023-06-14T15:09:42;26.50;94.90
13798;DHT22;6970;51.340;3.240;2023-06-14T15:12:10;26.50;94.80
13798;DHT22;6970;51.340;3.240;2023-06-14T15:14:40;26.40;94.50
13798;DHT22;6970;51.340;3.240;2023-06-14T15:17:09;26.40;94.70
13798;DHT22;6970;51.340;3.240;2023-06-14T15:19:38;26.30;94.90
13798;DHT22;6970;51.340;3.240;2023-06-14T15:22:08;26.20;95.10
13798;DHT22;6970;51.340;3.240;2023-06-14T15:24:38;26.00;95.30
13798;DHT22;6970;51.340;3.240;2023-06-14T15:27:13;25.90;95.40
13798;DHT22;6970;51.340;3.240;2023-06-14T15:29:44;25.90;95.60
13798;DHT22;6970;51.340;3.240;2023-06-14T15:32:16;25.80;95.50
13798;DHT22;6970;51.340;3.240;2023-06-14T15:34:43;25.80;95.60
13798;DHT22;6970;51.340;3.240;2023-06-14T15:37:13;25.70;95.60
13798;DHT22;6970;51.340;3.240;2023-06-14T15:39:40;25.70;95.80
13798;DHT22;6970;51.340;3.240;2023-06-14T15:42:09;25.70;95.80
13798;DHT22;6970;51.340;3.240;2023-06-14T15:44:37;25.60;95.70
13798;DHT22;6970;51.340;3.240;2023-06-14T15:47:06;25.60;95.50
13798;DHT22;6970;51.340;3.240;2023-06-14T15:49:34;25.50;95.60
13798;DHT22;6970;51.340;3.240;2023-06-14T15:52:02;25.40;95.60
13798;DHT22;6970;51.340;3.240;2023-06-14T15:54:31;25.40;95.10
13798;DHT22;6970;51.340;3.240;2023-06-14T15:57:02;25.30;95.00
13798;DHT22;6970;51.340;3.240;2023-06-14T15:59:29;25.30;95.10
13798;DHT22;6970;51.340;3.240;2023-06-14T16:01:57;25.20;95.20
13798;DHT22;6970;51.340;3.240;2023-06-14T16:04:27;25.20;95.40
13798;DHT22;6970;51.340;3.240;2023-06-14T16:06:54;25.10;95.50
13798;DHT22;6970;51.340;3.240;2023-06-14T16:09:21;25.10;95.50
13798;DHT22;6970;51.340;3.240;2023-06-14T16:11:50;25.00;95.50
13798;DHT22;6970;51.340;3.240;2023-06-14T16:14:17;25.00;95.80
13798;DHT22;6970;51.340;3.240;2023-06-14T16:16:46;25.00;95.70
13798;DHT22;6970;51.340;3.240;2023-06-14T16:19:14;24.90;95.70